Time;durP1;ratioP1;P1;durP2;ratioP2;P2;SDS_P1;SDS_P2;PMS_P1;PMS_P2;Temp;Humidity;BMP_temperature;BMP_pressure;BME280_temperature;BME280_humidity;BME280_pressure;Samples;Min_cycle;Max_cycle;Signal;HPM_P1;HPM_P2
2023/03/07 00:01:51;;;;;;;19.93;15.77;;;;;;;;;;4997359;28;20635;-69
2023/03/07 00:04:17;;;;;;;20.87;16.77;;;;;;;;;;4979746;28;20650;-70
2023/03/07 00:06:42;;;;;;;20.27;14.13;;;;;;;;;;4996238;28;20263;-69
2023/03/07 00:09:09;;;;;;;20.43;15.70;;;;;;;;;;4996644;28;20187;-69
2023/03/07 00:11:34;;;;;;;19.10;15.10;;;;;;;;;;4978492;28;20188;-68
2023/03/07 00:14:00;;;;;;;19.30;14.20;;;;;;;;;;4995864;28;20211;-69
2023/03/07 00:16:26;;;;;;;19.40;16.30;;;;;;;;;;4978185;28;20211;-69
2023/03/07 00:18:53;;;;;;;17.23;13.53;;;;;;;;;;4996030;28;20187;-69
2023/03/07 00:21:21;;;;;;;19.27;15.47;;;;;;;;;;4980182;28;20654;-70
2023/03/07 00:23:47;;;;;;;18.50;14.60;;;;;;;;;;4986912;28;20187;-69
2023/03/07 00:26:15;;;;;;;18.73;13.93;;;;;;;;;;5004122;28;20236;-69
2023/03/07 00:28:41;;;;;;;18.87;15.13;;;;;;;;;;5002396;28;20211;-69
2023/03/07 00:31:08;;;;;;;16.83;13.90;;;;;;;;;;4995998;28;20184;-69
2023/03/07 00:33:34;;;;;;;20.60;14.47;;;;;;;;;;4996065;28;20204;-69
2023/03/07 00:36:01;;;;;;;17.27;13.47;;;;;;;;;;4978202;28;20196;-69
2023/03/07 00:38:28;;;;;;;15.80;13.67;;;;;;;;;;4995773;28;20198;-69
2023/03/07 00:41:01;;;;;;;17.70;13.83;;;;;;;;;;4995155;28;20179;-69
2023/03/07 00:43:27;;;;;;;15.17;13.37;;;;;;;;;;4996055;28;20184;-69
2023/03/07 00:45:53;;;;;;;17.73;13.43;;;;;;;;;;4978060;28;20208;-68
2023/03/07 00:48:19;;;;;;;14.73;12.73;;;;;;;;;;4978092;28;20191;-69
2023/03/07 00:50:46;;;;;;;14.67;12.47;;;;;;;;;;4977858;28;20208;-69
2023/03/07 00:53:12;;;;;;;13.83;12.43;;;;;;;;;;4977837;28;20204;-69
2023/03/07 00:55:38;;;;;;;15.37;13.33;;;;;;;;;;4977404;28;20255;-69
2023/03/07 00:58:04;;;;;;;13.30;11.50;;;;;;;;;;4995214;28;20212;-69
2023/03/07 01:00:30;;;;;;;15.47;11.27;;;;;;;;;;4995970;28;20184;-69
2023/03/07 01:02:57;;;;;;;12.60;11.30;;;;;;;;;;4995406;28;20188;-69
2023/03/07 01:05:23;;;;;;;11.53;10.33;;;;;;;;;;4995035;28;20222;-68
2023/03/07 01:07:49;;;;;;;11.83;9.97;;;;;;;;;;4977562;28;20188;-69
2023/03/07 01:10:15;;;;;;;12.50;11.03;;;;;;;;;;4995025;28;20195;-69
2023/03/07 01:12:42;;;;;;;11.17;9.97;;;;;;;;;;4998226;28;20213;-68
2023/03/07 01:15:09;;;;;;;12.23;10.10;;;;;;;;;;4981184;28;20220;-70
2023/03/07 01:17:35;;;;;;;12.13;10.80;;;;;;;;;;4981541;28;20200;-69
2023/03/07 01:20:03;;;;;;;12.40;9.20;;;;;;;;;;4980851;28;20199;-70
2023/03/07 01:22:30;;;;;;;10.80;9.73;;;;;;;;;;4981138;28;20228;-69
2023/03/07 01:24:56;;;;;;;12.03;10.70;;;;;;;;;;4998592;28;20200;-69
2023/03/07 01:27:22;;;;;;;11.77;9.80;;;;;;;;;;4980766;28;20267;-69
2023/03/07 01:29:48;;;;;;;13.57;9.53;;;;;;;;;;4980825;28;20211;-69
2023/03/07 01:32:14;;;;;;;11.90;10.60;;;;;;;;;;4980950;28;20616;-69
2023/03/07 01:34:40;;;;;;;13.07;10.33;;;;;;;;;;4998156;28;20204;-69
2023/03/07 01:37:06;;;;;;;12.53;9.80;;;;;;;;;;4980819;28;20666;-69
2023/03/07 01:39:32;;;;;;;9.60;8.60;;;;;;;;;;4998415;28;20303;-69
2023/03/07 01:41:58;;;;;;;10.00;9.10;;;;;;;;;;4998626;28;20180;-69
2023/03/07 01:44:25;;;;;;;10.00;9.00;;;;;;;;;;4980781;28;20191;-69
2023/03/07 01:46:55;;;;;;;10.43;7.70;;;;;;;;;;4980637;28;20655;-69
2023/03/07 01:49:29;;;;;;;9.50;8.60;;;;;;;;;;4998656;28;20177;-69
2023/03/07 01:52:14;;;;;;;8.00;7.20;;;;;;;;;;4980671;28;20188;-69
2023/03/07 01:54:47;;;;;;;8.20;7.50;;;;;;;;;;4998037;28;20195;-69
2023/03/07 01:57:13;;;;;;;7.20;6.50;;;;;;;;;;4998058;28;20231;-69
2023/03/07 01:59:45;;;;;;;7.47;6.50;;;;;;;;;;4997909;28;20177;-69
2023/03/07 02:02:15;;;;;;;6.43;5.83;;;;;;;;;;4997795;28;20177;-69
2023/03/07 02:04:41;;;;;;;6.50;5.90;;;;;;;;;;4998006;28;20219;-69
2023/03/07 02:07:09;;;;;;;7.33;6.67;;;;;;;;;;4998210;28;20635;-69
2023/03/07 02:09:36;;;;;;;6.43;5.83;;;;;;;;;;4980176;28;20184;-69
2023/03/07 02:12:02;;;;;;;6.80;6.10;;;;;;;;;;4998152;28;20185;-69
2023/03/07 02:14:28;;;;;;;7.87;7.07;;;;;;;;;;4997885;28;20311;-69
2023/03/07 02:16:54;;;;;;;7.63;6.93;;;;;;;;;;4998052;28;20654;-69
2023/03/07 02:19:29;;;;;;;9.53;7.80;;;;;;;;;;4997263;28;20176;-69
2023/03/07 02:22:07;;;;;;;8.70;7.90;;;;;;;;;;4997405;28;20259;-69
2023/03/07 02:24:52;;;;;;;9.30;8.40;;;;;;;;;;4997387;28;20168;-69
2023/03/07 02:27:19;;;;;;;9.10;7.80;;;;;;;;;;4997461;28;20573;-69
2023/03/07 02:29:45;;;;;;;7.57;6.87;;;;;;;;;;4979342;28;20180;-70
2023/03/07 02:32:11;;;;;;;8.00;7.20;;;;;;;;;;4979739;28;20188;-69
2023/03/07 02:34:37;;;;;;;8.23;6.53;;;;;;;;;;4979940;28;20188;-69
2023/03/07 02:37:21;;;;;;;7.33;6.63;;;;;;;;;;4997493;28;20177;-69
2023/03/07 02:39:47;;;;;;;7.03;6.43;;;;;;;;;;4980108;28;20176;-68
2023/03/07 02:42:15;;;;;;;8.57;7.67;;;;;;;;;;4992496;28;20292;-69
2023/03/07 02:44:43;;;;;;;8.00;7.27;;;;;;;;;;5013971;28;20203;-69
2023/03/07 02:47:09;;;;;;;8.17;7.40;;;;;;;;;;5015955;28;20176;-69
2023/03/07 02:49:35;;;;;;;8.70;7.90;;;;;;;;;;5012038;28;20173;-69
2023/03/07 02:52:02;;;;;;;9.13;8.23;;;;;;;;;;4993990;28;20219;-70
2023/03/07 02:54:28;;;;;;;8.60;7.80;;;;;;;;;;4999828;28;20204;-68
2023/03/07 02:56:54;;;;;;;10.33;8.50;;;;;;;;;;4997093;28;20187;-69
2023/03/07 02:59:20;;;;;;;7.97;7.20;;;;;;;;;;4979739;28;20188;-69
2023/03/07 03:01:46;;;;;;;9.43;6.93;;;;;;;;;;4996955;28;20639;-69
2023/03/07 03:04:12;;;;;;;9.07;8.23;;;;;;;;;;4996399;28;20215;-69
2023/03/07 03:06:38;;;;;;;7.53;6.83;;;;;;;;;;4996640;28;20204;-69
2023/03/07 03:09:04;;;;;;;7.50;6.90;;;;;;;;;;4979366;28;20184;-69
2023/03/07 03:11:30;;;;;;;8.13;7.33;;;;;;;;;;4996650;28;20211;-69
2023/03/07 03:13:56;;;;;;;8.07;7.27;;;;;;;;;;4996541;28;20242;-69
2023/03/07 03:16:22;;;;;;;7.87;7.17;;;;;;;;;;4996324;28;20223;-69
2023/03/07 03:18:47;;;;;;;8.90;7.67;;;;;;;;;;4996131;28;20183;-69
2023/03/07 03:21:14;;;;;;;7.70;6.90;;;;;;;;;;4978632;28;20279;-69
2023/03/07 03:23:40;;;;;;;7.37;6.67;;;;;;;;;;4997292;28;20187;-69
2023/03/07 03:26:10;;;;;;;8.13;6.70;;;;;;;;;;4998337;28;20275;-68
2023/03/07 03:28:36;;;;;;;7.53;6.83;;;;;;;;;;4997978;28;20662;-69
2023/03/07 03:31:04;;;;;;;8.30;7.50;;;;;;;;;;4982200;28;20280;-69
2023/03/07 03:33:30;;;;;;;8.10;7.30;;;;;;;;;;4994652;28;20208;-68
2023/03/07 03:35:56;;;;;;;8.60;6.63;;;;;;;;;;5012430;28;20199;-68
2023/03/07 03:38:22;;;;;;;7.70;6.83;;;;;;;;;;5010925;28;20236;-69
2023/03/07 03:40:48;;;;;;;7.67;6.90;;;;;;;;;;5005670;28;20281;-68
2023/03/07 03:43:14;;;;;;;7.87;6.23;;;;;;;;;;4978967;28;20631;-69
2023/03/07 03:45:41;;;;;;;7.90;7.13;;;;;;;;;;4978336;28;20208;-69
2023/03/07 03:48:07;;;;;;;7.63;6.77;;;;;;;;;;4978831;28;20647;-70
2023/03/07 03:50:33;;;;;;;7.50;6.80;;;;;;;;;;4996227;28;20184;-68
2023/03/07 03:53:00;;;;;;;8.50;7.23;;;;;;;;;;5010094;28;20255;-70
2023/03/07 03:55:26;;;;;;;8.37;7.47;;;;;;;;;;4997336;28;20200;-70
2023/03/07 03:57:52;;;;;;;7.23;6.53;;;;;;;;;;5012122;28;20634;-70
2023/03/07 04:00:18;;;;;;;8.50;7.30;;;;;;;;;;4979325;28;20180;-70
2023/03/07 04:02:47;;;;;;;7.93;6.90;;;;;;;;;;4996563;28;20184;-69
2023/03/07 04:05:13;;;;;;;7.87;7.07;;;;;;;;;;4978397;28;20728;-70
2023/03/07 04:07:39;;;;;;;9.67;7.77;;;;;;;;;;4978409;28;20250;-69
2023/03/07 04:10:06;;;;;;;8.97;8.07;;;;;;;;;;4978224;28;20714;-69
2023/03/07 04:12:32;;;;;;;9.50;7.67;;;;;;;;;;4977999;28;20601;-68
2023/03/07 04:14:58;;;;;;;8.13;7.33;;;;;;;;;;4995216;28;20219;-69
2023/03/07 04:17:23;;;;;;;9.97;8.07;;;;;;;;;;4994907;28;20192;-69
2023/03/07 04:19:49;;;;;;;10.07;8.10;;;;;;;;;;4977699;28;20259;-69
2023/03/07 04:22:15;;;;;;;9.73;8.10;;;;;;;;;;4994908;28;20183;-70
2023/03/07 04:24:41;;;;;;;9.10;7.63;;;;;;;;;;4977456;28;20239;-69
2023/03/07 04:27:07;;;;;;;10.60;8.27;;;;;;;;;;4994675;28;20172;-69
2023/03/07 04:29:33;;;;;;;10.53;9.23;;;;;;;;;;4977559;28;20189;-71
2023/03/07 04:31:59;;;;;;;9.73;8.63;;;;;;;;;;4994965;28;20634;-69
2023/03/07 04:34:25;;;;;;;11.77;9.67;;;;;;;;;;4994824;28;20204;-69
2023/03/07 04:36:51;;;;;;;12.23;9.57;;;;;;;;;;4977562;28;20180;-69
2023/03/07 04:39:17;;;;;;;11.87;10.33;;;;;;;;;;4977655;28;20218;-69
2023/03/07 04:41:43;;;;;;;13.40;11.13;;;;;;;;;;4995271;28;20185;-69
2023/03/07 04:44:09;;;;;;;13.97;11.17;;;;;;;;;;4977622;28;20647;-68
2023/03/07 04:46:35;;;;;;;14.47;12.33;;;;;;;;;;4981326;28;20214;-69
2023/03/07 04:49:01;;;;;;;13.63;11.03;;;;;;;;;;4998899;28;20234;-69
2023/03/07 04:51:27;;;;;;;14.73;12.63;;;;;;;;;;4998965;28;20180;-69
2023/03/07 04:53:53;;;;;;;15.83;12.07;;;;;;;;;;4981457;28;20270;-69
2023/03/07 04:56:19;;;;;;;16.57;14.43;;;;;;;;;;4999249;28;20196;-69
2023/03/07 04:58:45;;;;;;;18.90;14.17;;;;;;;;;;4999055;28;20207;-69
2023/03/07 05:01:11;;;;;;;19.43;14.53;;;;;;;;;;4998918;28;20181;-69
2023/03/07 05:03:37;;;;;;;22.93;15.40;;;;;;;;;;4981211;28;20180;-68
2023/03/07 05:06:04;;;;;;;17.77;14.23;;;;;;;;;;4982044;28;20620;-69
2023/03/07 05:08:30;;;;;;;19.23;14.67;;;;;;;;;;4999820;28;20187;-69
2023/03/07 05:10:56;;;;;;;20.60;16.13;;;;;;;;;;4999967;28;20265;-69
2023/03/07 05:13:22;;;;;;;21.40;15.33;;;;;;;;;;4982399;28;20299;-69
2023/03/07 05:15:52;;;;;;;17.80;15.03;;;;;;;;;;4999300;28;20298;-69
2023/03/07 05:18:18;;;;;;;19.90;16.60;;;;;;;;;;4999850;28;20172;-69
2023/03/07 05:20:44;;;;;;;21.40;16.80;;;;;;;;;;4999796;28;20181;-69
2023/03/07 05:23:10;;;;;;;19.10;15.57;;;;;;;;;;4999462;28;20195;-69
2023/03/07 05:25:36;;;;;;;18.90;15.57;;;;;;;;;;4998604;28;20324;-69
2023/03/07 05:28:02;;;;;;;21.87;15.93;;;;;;;;;;4981187;28;20180;-68
2023/03/07 05:30:28;;;;;;;18.53;15.17;;;;;;;;;;4999332;28;20188;-69
2023/03/07 05:32:54;;;;;;;22.07;15.20;;;;;;;;;;4981314;28;20209;-69
2023/03/07 05:35:23;;;;;;;21.33;15.90;;;;;;;;;;4998480;28;20279;-69
2023/03/07 05:37:49;;;;;;;19.17;15.83;;;;;;;;;;4998966;28;20519;-69
2023/03/07 05:40:16;;;;;;;20.07;16.20;;;;;;;;;;4998541;28;20232;-69
2023/03/07 05:42:43;;;;;;;23.13;17.03;;;;;;;;;;4998628;28;20215;-69
2023/03/07 05:45:09;;;;;;;21.00;16.80;;;;;;;;;;4997785;28;20685;-69
2023/03/07 05:47:35;;;;;;;22.93;16.90;;;;;;;;;;4997452;28;20267;-68
2023/03/07 05:50:01;;;;;;;21.50;16.40;;;;;;;;;;4981352;28;20591;-69
2023/03/07 05:52:27;;;;;;;21.47;16.60;;;;;;;;;;4997856;28;20649;-69
2023/03/07 05:54:53;;;;;;;19.70;16.87;;;;;;;;;;4998988;28;20197;-70
2023/03/07 05:57:19;;;;;;;20.23;17.83;;;;;;;;;;5012576;28;20177;-70
2023/03/07 05:59:45;;;;;;;22.30;17.03;;;;;;;;;;5013657;28;20693;-69
2023/03/07 06:02:12;;;;;;;21.37;18.70;;;;;;;;;;5013824;28;20192;-69
2023/03/07 06:04:37;;;;;;;22.87;18.43;;;;;;;;;;5012624;28;20183;-69
2023/03/07 06:07:03;;;;;;;21.67;17.00;;;;;;;;;;5002019;28;20720;-68
2023/03/07 06:09:29;;;;;;;18.50;16.50;;;;;;;;;;4998734;28;20180;-69
2023/03/07 06:11:55;;;;;;;21.37;18.13;;;;;;;;;;4998464;28;20705;-69
2023/03/07 06:14:21;;;;;;;23.90;18.50;;;;;;;;;;4981016;28;20226;-69
2023/03/07 06:16:47;;;;;;;22.77;17.60;;;;;;;;;;4998383;28;20268;-69
2023/03/07 06:19:13;;;;;;;22.60;18.17;;;;;;;;;;4980561;28;20246;-69
2023/03/07 06:21:39;;;;;;;20.33;17.33;;;;;;;;;;4998469;28;20237;-69
2023/03/07 06:24:06;;;;;;;21.67;17.23;;;;;;;;;;4980712;28;20192;-68
2023/03/07 06:26:32;;;;;;;26.47;19.00;;;;;;;;;;4980401;28;20205;-68
2023/03/07 06:28:58;;;;;;;23.60;18.77;;;;;;;;;;4980084;28;20185;-69
2023/03/07 06:31:24;;;;;;;23.73;18.60;;;;;;;;;;4980322;28;20195;-69
2023/03/07 06:33:50;;;;;;;23.60;19.93;;;;;;;;;;4980192;28;20228;-68
2023/03/07 06:36:17;;;;;;;24.20;19.80;;;;;;;;;;4979741;28;20204;-68
2023/03/07 06:38:44;;;;;;;24.27;19.37;;;;;;;;;;5041295;23;20372;-70
2023/03/07 06:41:10;;;;;;;25.03;20.37;;;;;;;;;;5036606;28;20171;-68
2023/03/07 06:43:36;;;;;;;25.30;20.70;;;;;;;;;;5019361;28;20186;-68
2023/03/07 06:46:02;;;;;;;26.90;21.53;;;;;;;;;;5036539;28;20553;-68
2023/03/07 06:48:28;;;;;;;25.33;20.03;;;;;;;;;;5018645;28;20202;-68
2023/03/07 06:50:54;;;;;;;26.10;21.10;;;;;;;;;;5036706;28;20264;-68
2023/03/07 06:53:20;;;;;;;27.23;20.50;;;;;;;;;;5036281;28;20203;-69
2023/03/07 06:55:50;;;;;;;27.57;22.93;;;;;;;;;;5036178;28;20666;-69
2023/03/07 06:58:16;;;;;;;28.03;23.07;;;;;;;;;;5036529;28;20202;-69
2023/03/07 07:00:42;;;;;;;26.23;19.80;;;;;;;;;;5036842;28;20202;-68
2023/03/07 07:03:11;;;;;;;28.13;22.83;;;;;;;;;;5036144;28;20233;-68
2023/03/07 07:05:37;;;;;;;25.83;21.53;;;;;;;;;;5036192;28;20551;-69
2023/03/07 07:08:03;;;;;;;24.87;21.83;;;;;;;;;;5017411;28;20199;-69
2023/03/07 07:10:29;;;;;;;26.60;20.40;;;;;;;;;;5035464;28;20198;-68
2023/03/07 07:12:56;;;;;;;28.37;22.20;;;;;;;;;;5018036;28;20285;-68
2023/03/07 07:15:22;;;;;;;25.67;22.77;;;;;;;;;;5035739;28;20226;-69
2023/03/07 07:17:49;;;;;;;25.53;20.77;;;;;;;;;;5035656;28;20680;-67
2023/03/07 07:20:15;;;;;;;22.63;19.33;;;;;;;;;;5018101;28;20203;-68
2023/03/07 07:22:41;;;;;;;25.77;21.07;;;;;;;;;;5035825;28;20198;-68
2023/03/07 07:25:07;;;;;;;27.23;19.57;;;;;;;;;;5036003;28;20190;-68
2023/03/07 07:27:35;;;;;;;25.73;19.50;;;;;;;;;;5035560;28;20673;-69
2023/03/07 07:30:08;;;;;;;21.77;18.60;;;;;;;;;;5093303;28;20551;-67
2023/03/07 07:32:34;;;;;;;26.00;19.87;;;;;;;;;;5091164;28;20192;-69
2023/03/07 07:35:00;;;;;;;23.80;19.47;;;;;;;;;;5092686;28;20181;-68
2023/03/07 07:37:26;;;;;;;26.70;19.70;;;;;;;;;;5092180;28;20201;-68
2023/03/07 07:39:52;;;;;;;26.47;19.27;;;;;;;;;;5092040;28;20180;-70
2023/03/07 07:42:18;;;;;;;24.20;19.80;;;;;;;;;;5091958;28;20549;-70
2023/03/07 07:44:45;;;;;;;22.77;19.70;;;;;;;;;;5092264;28;20654;-69
2023/03/07 07:47:11;;;;;;;25.10;20.03;;;;;;;;;;5090105;28;20269;-69
2023/03/07 07:49:37;;;;;;;29.33;20.70;;;;;;;;;;5091353;28;20197;-69
2023/03/07 07:52:03;;;;;;;25.07;19.60;;;;;;;;;;5091696;28;20180;-68
2023/03/07 07:54:29;;;;;;;27.03;20.13;;;;;;;;;;5090608;28;20181;-68
2023/03/07 07:56:57;;;;;;;30.33;21.07;;;;;;;;;;5092370;28;20650;-68
2023/03/07 07:59:23;;;;;;;29.97;21.77;;;;;;;;;;5091900;28;20624;-68
2023/03/07 08:01:49;;;;;;;28.97;19.93;;;;;;;;;;5091961;28;20181;-69
2023/03/07 08:04:15;;;;;;;24.93;19.40;;;;;;;;;;5091549;28;20677;-69
2023/03/07 08:06:43;;;;;;;24.83;19.43;;;;;;;;;;5091314;28;20241;-68
2023/03/07 08:09:08;;;;;;;25.50;19.57;;;;;;;;;;5089975;28;20299;-69
2023/03/07 08:11:34;;;;;;;26.03;19.83;;;;;;;;;;5091492;28;20209;-69
2023/03/07 08:14:01;;;;;;;24.40;18.70;;;;;;;;;;5091211;28;20177;-69
2023/03/07 08:16:28;;;;;;;24.03;18.50;;;;;;;;;;5091087;28;20176;-69
2023/03/07 08:18:55;;;;;;;24.77;18.80;;;;;;;;;;5091866;28;20688;-67
2023/03/07 08:21:21;;;;;;;24.13;18.10;;;;;;;;;;5090132;28;20223;-68
2023/03/07 08:23:47;;;;;;;25.43;20.03;;;;;;;;;;5091658;28;20220;-69
2023/03/07 08:26:13;;;;;;;29.27;19.43;;;;;;;;;;5092340;28;20185;-69
2023/03/07 08:28:40;;;;;;;22.57;18.10;;;;;;;;;;5091498;28;20216;-68
2023/03/07 08:31:07;;;;;;;26.30;19.03;;;;;;;;;;5091091;28;20315;-67
2023/03/07 08:33:33;;;;;;;21.67;16.00;;;;;;;;;;5091298;28;20311;-68
2023/03/07 08:35:59;;;;;;;12.97;11.07;;;;;;;;;;5091441;28;20193;-68
2023/03/07 08:38:25;;;;;;;11.67;9.43;;;;;;;;;;5091479;28;20201;-68
2023/03/07 08:40:51;;;;;;;10.13;8.90;;;;;;;;;;5081552;28;20554;-69
2023/03/07 08:43:17;;;;;;;8.57;7.67;;;;;;;;;;5077583;28;20173;-68
2023/03/07 08:45:43;;;;;;;7.27;6.57;;;;;;;;;;5077547;28;20231;-69
2023/03/07 08:48:09;;;;;;;7.50;6.43;;;;;;;;;;5076464;28;20563;-67
2023/03/07 08:50:35;;;;;;;6.93;6.00;;;;;;;;;;5077253;28;20531;-68
2023/03/07 08:53:02;;;;;;;7.87;7.17;;;;;;;;;;5076579;28;20181;-69
2023/03/07 08:55:28;;;;;;;8.63;7.73;;;;;;;;;;5077291;28;20173;-69
2023/03/07 08:57:54;;;;;;;8.43;7.03;;;;;;;;;;5077679;28;20568;-68
2023/03/07 09:00:20;;;;;;;9.57;7.50;;;;;;;;;;5077128;28;20584;-69
2023/03/07 09:02:46;;;;;;;7.03;6.33;;;;;;;;;;5077575;28;20257;-69
2023/03/07 09:05:12;;;;;;;7.33;6.63;;;;;;;;;;5077285;28;20174;-68
2023/03/07 09:07:38;;;;;;;6.73;5.40;;;;;;;;;;5077252;28;20194;-67
2023/03/07 09:10:04;;;;;;;6.30;5.60;;;;;;;;;;5076021;28;20205;-68
2023/03/07 09:12:32;;;;;;;7.33;6.60;;;;;;;;;;5075700;28;20239;-68
2023/03/07 09:14:57;;;;;;;5.63;4.23;;;;;;;;;;5075781;28;20651;-67
2023/03/07 09:17:23;;;;;;;5.53;4.77;;;;;;;;;;5075774;28;20198;-68
2023/03/07 09:19:49;;;;;;;5.57;5.00;;;;;;;;;;5077192;28;20173;-69
2023/03/07 09:22:16;;;;;;;6.33;4.80;;;;;;;;;;5075636;28;20181;-69
2023/03/07 09:24:42;;;;;;;5.23;4.73;;;;;;;;;;5076964;28;20485;-69
2023/03/07 09:27:08;;;;;;;5.87;4.20;;;;;;;;;;5076721;28;20269;-68
2023/03/07 09:29:35;;;;;;;5.97;5.47;;;;;;;;;;5076758;28;20593;-68
2023/03/07 09:32:02;;;;;;;8.97;6.50;;;;;;;;;;5076968;28;20178;-68
2023/03/07 09:34:28;;;;;;;7.77;6.93;;;;;;;;;;5076275;28;20170;-67
2023/03/07 09:36:54;;;;;;;8.80;7.87;;;;;;;;;;5076777;28;20180;-72
2023/03/07 09:39:20;;;;;;;6.40;5.80;;;;;;;;;;5075219;28;20213;-65
2023/03/07 09:41:58;;;;;;;6.10;5.50;;;;;;;;;;5076695;28;20173;-69
2023/03/07 09:44:33;;;;;;;11.80;9.03;;;;;;;;;;5077032;28;20177;-68
2023/03/07 09:47:02;;;;;;;8.80;7.13;;;;;;;;;;5074918;28;20181;-68
2023/03/07 09:49:33;;;;;;;5.87;5.27;;;;;;;;;;5076021;28;20289;-69
2023/03/07 09:52:00;;;;;;;8.70;7.90;;;;;;;;;;5075772;28;20520;-69
2023/03/07 09:54:32;;;;;;;6.13;4.83;;;;;;;;;;5076137;28;20273;-70
2023/03/07 09:56:59;;;;;;;7.70;6.70;;;;;;;;;;5074149;28;20167;-69
2023/03/07 09:59:33;;;;;;;6.23;5.73;;;;;;;;;;5075909;28;20234;-68
2023/03/07 10:02:14;;;;;;;6.67;6.00;;;;;;;;;;5076017;28;20169;-70
2023/03/07 10:04:47;;;;;;;6.73;5.97;;;;;;;;;;5076025;28;20189;-69
2023/03/07 10:07:15;;;;;;;7.57;6.53;;;;;;;;;;5075849;28;20204;-69
2023/03/07 10:09:41;;;;;;;8.97;6.63;;;;;;;;;;5076188;28;20231;-69
2023/03/07 10:12:16;;;;;;;5.17;4.70;;;;;;;;;;5076118;28;20272;-69
2023/03/07 10:14:51;;;;;;;6.20;5.60;;;;;;;;;;5076031;28;20231;-69
2023/03/07 10:17:23;;;;;;;6.30;5.20;;;;;;;;;;5076437;28;20189;-68
2023/03/07 10:19:50;;;;;;;4.60;4.17;;;;;;;;;;5074671;28;20189;-68
2023/03/07 10:22:35;;;;;;;5.60;5.00;;;;;;;;;;5075187;28;20265;-68
2023/03/07 10:25:07;;;;;;;7.67;6.90;;;;;;;;;;5076544;28;20173;-67
2023/03/07 10:27:33;;;;;;;6.40;5.73;;;;;;;;;;5075973;28;20204;-67
2023/03/07 10:30:00;;;;;;;5.40;4.57;;;;;;;;;;5074926;28;20217;-68
2023/03/07 10:32:46;;;;;;;5.00;4.07;;;;;;;;;;5076038;28;20209;-69
2023/03/07 10:35:15;;;;;;;5.70;4.53;;;;;;;;;;5075666;28;20180;-67
2023/03/07 10:37:52;;;;;;;4.20;3.77;;;;;;;;;;5075646;28;20277;-67
2023/03/07 10:40:22;;;;;;;4.50;4.10;;;;;;;;;;5075857;28;20173;-70
2023/03/07 10:42:48;;;;;;;4.67;4.27;;;;;;;;;;5074771;28;20591;-68
2023/03/07 10:45:15;;;;;;;6.70;3.93;;;;;;;;;;5076844;28;20174;-67
2023/03/07 10:47:41;;;;;;;4.27;3.70;;;;;;;;;;5078704;28;20193;-67
2023/03/07 10:50:22;;;;;;;5.53;5.03;;;;;;;;;;5078252;28;20296;-67
2023/03/07 10:52:52;;;;;;;5.50;5.00;;;;;;;;;;5078608;28;20166;-67
2023/03/07 10:55:32;;;;;;;5.23;4.57;;;;;;;;;;5075463;28;20170;-67
2023/03/07 10:58:15;;;;;;;10.13;7.40;;;;;;;;;;5075825;28;20220;-66
2023/03/07 11:00:46;;;;;;;11.47;7.60;;;;;;;;;;5074300;28;20270;-68
2023/03/07 11:03:30;;;;;;;9.50;6.17;;;;;;;;;;5074492;28;20170;-68
2023/03/07 11:05:56;;;;;;;12.07;8.60;;;;;;;;;;5075051;28;20268;-67
2023/03/07 11:08:27;;;;;;;4.70;4.27;;;;;;;;;;5074996;28;20235;-68
2023/03/07 11:10:54;;;;;;;3.83;3.53;;;;;;;;;;5073841;28;20268;-67
2023/03/07 11:13:20;;;;;;;6.97;5.03;;;;;;;;;;5075630;28;20704;-66
2023/03/07 11:15:47;;;;;;;5.80;4.60;;;;;;;;;;5074870;28;20544;-68
2023/03/07 11:18:26;;;;;;;6.20;4.73;;;;;;;;;;5073586;28;20209;-68
2023/03/07 11:20:52;;;;;;;5.03;4.53;;;;;;;;;;5074926;28;20201;-68
2023/03/07 11:23:22;;;;;;;5.93;4.90;;;;;;;;;;5075255;28;20723;-68
2023/03/07 11:25:49;;;;;;;5.13;4.57;;;;;;;;;;5075198;28;20177;-68
2023/03/07 11:28:27;;;;;;;4.20;3.90;;;;;;;;;;5073456;28;20217;-68
2023/03/07 11:30:54;;;;;;;4.57;4.17;;;;;;;;;;5073751;28;20186;-67
2023/03/07 11:33:26;;;;;;;5.20;4.70;;;;;;;;;;5073559;28;20182;-68
2023/03/07 11:35:59;;;;;;;5.20;4.70;;;;;;;;;;5074626;28;20256;-68
2023/03/07 11:38:25;;;;;;;5.67;4.53;;;;;;;;;;5074863;28;20198;-67
2023/03/07 11:41:05;;;;;;;4.13;3.73;;;;;;;;;;5074940;28;20177;-68
2023/03/07 11:43:31;;;;;;;4.33;3.93;;;;;;;;;;5075352;28;20192;-68
2023/03/07 11:46:09;;;;;;;5.10;4.60;;;;;;;;;;5074739;28;20221;-68
2023/03/07 11:48:42;;;;;;;4.63;4.17;;;;;;;;;;5074412;28;20216;-67
2023/03/07 11:51:19;;;;;;;5.00;4.50;;;;;;;;;;5074787;28;20249;-69
2023/03/07 11:53:54;;;;;;;5.03;4.63;;;;;;;;;;5073578;28;20170;-68
2023/03/07 11:56:30;;;;;;;4.87;4.43;;;;;;;;;;5074670;28;20165;-67
2023/03/07 11:59:20;;;;;;;5.30;4.60;;;;;;;;;;5073660;28;20255;-69
2023/03/07 12:01:51;;;;;;;4.50;4.00;;;;;;;;;;5075124;28;20170;-69
2023/03/07 12:04:25;;;;;;;4.37;3.97;;;;;;;;;;5074930;28;20232;-67
2023/03/07 12:06:59;;;;;;;4.83;4.27;;;;;;;;;;5074845;28;20531;-69
2023/03/07 12:09:28;;;;;;;4.37;3.80;;;;;;;;;;5074551;28;20243;-68
2023/03/07 12:12:13;;;;;;;5.47;4.67;;;;;;;;;;5074386;28;20174;-68
2023/03/07 12:14:57;;;;;;;5.73;4.07;;;;;;;;;;5074580;28;20256;-68
2023/03/07 12:17:42;;;;;;;5.10;4.50;;;;;;;;;;5077857;28;20190;-69
2023/03/07 12:20:18;;;;;;;7.57;4.30;;;;;;;;;;5078029;28;20166;-68
2023/03/07 12:22:48;;;;;;;4.77;4.33;;;;;;;;;;5078333;28;20253;-68
2023/03/07 12:25:23;;;;;;;6.13;4.17;;;;;;;;;;5076441;28;20221;-69
2023/03/07 12:27:49;;;;;;;4.70;3.87;;;;;;;;;;5077798;28;20239;-68
2023/03/07 12:30:18;;;;;;;6.00;3.80;;;;;;;;;;5076411;28;20174;-69
2023/03/07 12:32:44;;;;;;;4.27;3.87;;;;;;;;;;5078001;28;20288;-70
2023/03/07 12:35:28;;;;;;;4.43;3.70;;;;;;;;;;5077941;28;20181;-68
2023/03/07 12:38:12;;;;;;;4.50;3.93;;;;;;;;;;5077977;28;20623;-67
2023/03/07 12:40:44;;;;;;;6.73;5.40;;;;;;;;;;5077527;28;20188;-69
2023/03/07 12:43:26;;;;;;;5.80;4.40;;;;;;;;;;5077532;28;20190;-67
2023/03/07 12:45:59;;;;;;;6.37;4.30;;;;;;;;;;5077619;28;20170;-67
2023/03/07 12:48:45;;;;;;;4.90;4.50;;;;;;;;;;5077841;28;20202;-70
2023/03/07 12:51:18;;;;;;;164.63;79.17;;;;;;;;;;5076572;28;20174;-67
2023/03/07 12:54:03;;;;;;;18.73;16.73;;;;;;;;;;5077911;28;20279;-70
2023/03/07 12:56:47;;;;;;;26.90;24.17;;;;;;;;;;5077082;28;20224;-68
2023/03/07 12:59:16;;;;;;;13.27;11.97;;;;;;;;;;5077527;28;20271;-68
2023/03/07 13:02:08;;;;;;;7.93;6.37;;;;;;;;;;5077990;28;20710;-70
2023/03/07 13:04:35;;;;;;;5.40;4.20;;;;;;;;;;5076856;28;20197;-68
2023/03/07 13:07:04;;;;;;;10.20;6.40;;;;;;;;;;5077221;28;20532;-69
2023/03/07 13:09:32;;;;;;;6.40;5.80;;;;;;;;;;5077208;28;20259;-69
2023/03/07 13:12:20;;;;;;;6.07;4.53;;;;;;;;;;5077021;28;20184;-68
2023/03/07 13:14:50;;;;;;;6.20;4.43;;;;;;;;;;5077937;28;20158;-68
2023/03/07 13:17:34;;;;;;;5.30;4.40;;;;;;;;;;5076811;28;20281;-70
2023/03/07 13:20:05;;;;;;;4.33;3.93;;;;;;;;;;5077202;28;20709;-69
2023/03/07 13:25:19;;;;;;;4.30;3.63;;;;;;;;;;5059180;28;20218;-70
2023/03/07 13:27:46;;;;;;;3.90;3.60;;;;;;;;;;5056704;28;20717;-69
2023/03/07 13:30:13;;;;;;;5.53;3.80;;;;;;;;;;5055793;28;20298;-69
2023/03/07 13:32:48;;;;;;;5.60;5.00;;;;;;;;;;5055985;28;20182;-69
2023/03/07 13:35:23;;;;;;;5.73;4.27;;;;;;;;;;5038593;28;20178;-71
2023/03/07 13:37:50;;;;;;;4.33;3.30;;;;;;;;;;5037686;28;20213;-68
2023/03/07 13:40:22;;;;;;;4.50;3.93;;;;;;;;;;5037367;28;20179;-69
2023/03/07 13:42:48;;;;;;;6.93;3.70;;;;;;;;;;5055367;28;20279;-69
2023/03/07 13:45:33;;;;;;;5.07;3.43;;;;;;;;;;5055072;28;20190;-69
2023/03/07 13:47:59;;;;;;;4.77;4.30;;;;;;;;;;5055374;28;20249;-69
2023/03/07 13:50:33;;;;;;;6.00;4.10;;;;;;;;;;5055097;28;20178;-70
2023/03/07 13:53:01;;;;;;;5.10;3.77;;;;;;;;;;5055314;28;20194;-70
2023/03/07 13:55:30;;;;;;;6.27;4.30;;;;;;;;;;5057271;28;20175;-70
2023/03/07 13:57:57;;;;;;;4.70;4.10;;;;;;;;;;5039720;28;20220;-70
2023/03/07 14:00:24;;;;;;;4.87;4.37;;;;;;;;;;5054839;28;20185;-69
2023/03/07 14:02:52;;;;;;;5.53;4.53;;;;;;;;;;5054944;28;20277;-69
2023/03/07 14:05:18;;;;;;;4.03;3.63;;;;;;;;;;5054958;28;20244;-69
2023/03/07 14:07:50;;;;;;;10.67;9.00;;;;;;;;;;5055018;28;20213;-69
2023/03/07 14:10:18;;;;;;;8.53;6.67;;;;;;;;;;5076953;28;20198;-70
2023/03/07 14:12:55;;;;;;;14.13;11.87;;;;;;;;;;5077402;28;20204;-69
2023/03/07 14:15:31;;;;;;;6.17;4.63;;;;;;;;;;5077018;28;20181;-70
2023/03/07 14:18:09;;;;;;;7.50;5.17;;;;;;;;;;5058896;28;20197;-70
2023/03/07 14:20:57;;;;;;;6.17;5.57;;;;;;;;;;5075996;28;20143;-71
2023/03/07 14:23:42;;;;;;;8.17;5.40;;;;;;;;;;5074982;28;20208;-70
2023/03/07 14:26:19;;;;;;;5.60;4.60;;;;;;;;;;5061259;28;20202;-69
2023/03/07 14:28:57;;;;;;;6.40;4.43;;;;;;;;;;5037546;28;20237;-69
2023/03/07 14:31:24;;;;;;;4.40;3.87;;;;;;;;;;5036667;28;20257;-68
2023/03/07 14:33:50;;;;;;;5.07;4.40;;;;;;;;;;5036534;28;20206;-68
2023/03/07 14:36:34;;;;;;;5.20;4.67;;;;;;;;;;5054193;28;20184;-69
2023/03/07 14:39:01;;;;;;;5.73;5.20;;;;;;;;;;5053919;28;20170;-69
2023/03/07 14:41:35;;;;;;;5.80;5.17;;;;;;;;;;5054054;28;20214;-69
2023/03/07 14:44:20;;;;;;;13.93;11.67;;;;;;;;;;5036213;28;20579;-69